Flight Track Log - Related Links

Times and Time Zones

All times are in EST time to prevent confusion due to time zone crossing. See the CSN6818 flight status page for this flight to view local times or setup timezone preferences in your user account.

Time Position Orientation Groundspeed Altitude Reporting Facility
EST Latitude Longitude Course Direction KTS MPH feet Rate Location/Type
Wed 07:40:00 AM 37.1569 79.9798 38° Northeast  Level Estimated
Wed 07:41:00 AM 37.2751 80.0949 38° Northeast  Level Estimated
Wed 07:42:00 AM 37.3932 80.2105 38° Northeast  Level Estimated
Wed 07:43:00 AM 37.5112 80.3264 38° Northeast  Level Estimated
Wed 07:44:00 AM 37.6291 80.4427 38° Northeast  Level Estimated
Wed 07:45:00 AM 37.7468 80.5593 38° Northeast  Level Estimated
Wed 07:46:00 AM 37.8645 80.6764 38° Northeast  Level Estimated
Wed 07:47:00 AM 37.9820 80.7938 38° Northeast  Level Estimated
Wed 07:48:00 AM 38.0994 80.9115 38° Northeast  Level Estimated
Wed 07:49:00 AM 38.2168 81.0297 38° Northeast  Level Estimated
Wed 07:50:00 AM 38.3339 81.1482 38° Northeast  Level Estimated
Wed 07:51:00 AM 38.4510 81.2671 38° Northeast  Level Estimated
Wed 07:52:00 AM 38.5679 81.3864 39° Northeast  Level Estimated
Wed 07:53:00 AM 38.6847 81.5061 39° Northeast  Level Estimated
Wed 07:54:00 AM 38.8014 81.6262 39° Northeast  Level Estimated
Wed 07:55:00 AM 38.9180 81.7467 39° Northeast  Level Estimated
Wed 07:56:00 AM 39.0345 81.8676 39° Northeast  Level Estimated
Wed 07:57:00 AM 39.1508 81.9888 39° Northeast  Level Estimated
Wed 07:58:00 AM 39.2670 82.1105 39° Northeast  Level Estimated
Wed 07:59:00 AM 39.3831 82.2326 39° Northeast  Level Estimated
Wed 08:00:00 AM 39.4990 82.3551 39° Northeast  Level Estimated
Wed 08:01:00 AM 39.6148 82.4780 39° Northeast  Level Estimated
Wed 08:02:00 AM 39.7305 82.6013 39° Northeast  Level Estimated
Wed 08:03:00 AM 39.8461 82.7250 39° Northeast  Level Estimated
Wed 08:04:00 AM 39.9615 82.8491 39° Northeast  Level Estimated
Wed 08:05:00 AM 40.0768 82.9737 40° Northeast  Level Estimated
Wed 08:06:00 AM 40.1920 83.0987 40° Northeast  Level Estimated
Wed 08:07:00 AM 40.3070 83.2241 40° Northeast  Level Estimated
Wed 08:08:00 AM 40.4219 83.3499 40° Northeast  Level Estimated
Wed 08:09:00 AM 40.5366 83.4762 40° Northeast  Level Estimated
Wed 08:10:00 AM 40.6512 83.6029 40° Northeast  Level Estimated
Wed 08:11:00 AM 40.7657 83.7300 40° Northeast  Level Estimated
Wed 08:12:00 AM 40.8800 83.8576 40° Northeast  Level Estimated
Wed 08:13:00 AM 40.9942 83.9856 40° Northeast  Level Estimated
Wed 08:14:00 AM 41.1083 84.1140 40° Northeast  Level Estimated
Wed 08:15:00 AM 41.2222 84.2429 40° Northeast  Level Estimated
Wed 08:16:00 AM 41.3359 84.3723 40° Northeast  Level Estimated
Wed 08:17:00 AM 41.4496 84.5021 41° Northeast  Level Estimated
Wed 08:18:00 AM 41.5630 84.6323 41° Northeast  Level Estimated
Wed 08:19:00 AM 41.6764 84.7631 41° Northeast  Level Estimated
Wed 08:20:00 AM 41.7895 84.8942 41° Northeast  Level Estimated
Wed 08:21:00 AM 41.9026 85.0259 41° Northeast  Level Estimated
Wed 08:22:00 AM 42.0154 85.1580 41° Northeast  Level Estimated
Wed 08:23:00 AM 42.1282 85.2906 41° Northeast  Level Estimated
Wed 08:24:00 AM 42.2407 85.4236 41° Northeast  Level Estimated
Wed 08:25:00 AM 42.3531 85.5571 41° Northeast  Level Estimated
Wed 08:26:00 AM 42.4654 85.6911 41° Northeast  Level Estimated
Wed 08:27:00 AM 42.5775 85.8256 41° Northeast  Level Estimated
Wed 08:28:00 AM 42.6894 85.9606 42° Northeast  Level Estimated
Wed 08:29:00 AM 42.8012 86.0960 42° Northeast  Level Estimated
Wed 08:30:00 AM 42.9128 86.2320 42° Northeast  Level Estimated
Wed 08:31:00 AM 43.0243 86.3684 42° Northeast  Level Estimated
Wed 08:32:00 AM 43.1356 86.5053 42° Northeast  Level Estimated
Wed 08:33:00 AM 43.2467 86.6428 42° Northeast  Level Estimated
Wed 08:34:00 AM 43.3577 86.7807 42° Northeast  Level Estimated
Wed 08:35:00 AM 43.4685 86.9192 42° Northeast  Level Estimated
Wed 08:36:00 AM 43.5792 87.0581 42° Northeast  Level Estimated
Wed 08:37:00 AM 43.6896 87.1976 42° Northeast  Level Estimated
Wed 08:38:00 AM 43.7999 87.3375 42° Northeast  Level Estimated
Wed 08:39:00 AM 43.9071 87.4742 43° Northeast  Level Estimated
Wed 08:40:00 AM 43.9071 87.4742 144° Southeast  Level Estimated
Wed 08:41:00 AM 43.9071 87.4742 144° Southeast  Level Estimated
Wed 08:42:00 AM 43.9071 87.4742 144° Southeast  Level Estimated
Wed 08:43:00 AM 43.9071 87.4742 144° Southeast  Level Estimated
Wed 08:44:00 AM 43.9071 87.4742 144° Southeast  Level Estimated
Wed 08:45:00 AM 43.9071 87.4742 144° Southeast  Level Estimated
Wed 08:46:00 AM 43.9071 87.4742 144° Southeast  Level Estimated
Wed 08:47:00 AM 43.9071 87.4742 144° Southeast  Level Estimated
Wed 08:48:00 AM 43.9071 87.4742 144° Southeast  Level Estimated
Wed 08:49:00 AM 43.9071 87.4742 144° Southeast  Level Estimated
Wed 08:50:00 AM 43.9071 87.4742 144° Southeast  Level Estimated
Wed 08:51:00 AM 43.9071 87.4742 144° Southeast  Level Estimated
Wed 08:52:00 AM 43.9071 87.4742 144° Southeast  Level Estimated
Wed 08:53:00 AM 43.9071 87.4742 144° Southeast  Level Estimated
Wed 08:54:00 AM 43.9071 87.4742 144° Southeast  Level Estimated
Wed 08:55:00 AM 43.9071 87.4742 144° Southeast  Level Estimated

Login

Don't have an account? Register now (free) for customized features, flight alerts, and more!